sensor_id;sensor_type;location;lat;lon;timestamp;P1;durP1;ratioP1;P2;durP2;ratioP2
19030;SDS011;9648;51.130;13.978;2023-06-10T00:00:44;9.25;;;8.02;;
19030;SDS011;9648;51.130;13.978;2023-06-10T00:03:11;8.85;;;7.95;;
19030;SDS011;9648;51.130;13.978;2023-06-10T00:05:38;11.32;;;8.95;;
19030;SDS011;9648;51.130;13.978;2023-06-10T00:08:06;9.02;;;7.80;;
19030;SDS011;9648;51.130;13.978;2023-06-10T00:10:33;10.35;;;8.95;;
19030;SDS011;9648;51.130;13.978;2023-06-10T00:13:04;10.13;;;8.07;;
19030;SDS011;9648;51.130;13.978;2023-06-10T00:15:40;9.48;;;8.07;;
19030;SDS011;9648;51.130;13.978;2023-06-10T00:18:08;9.35;;;7.90;;
19030;SDS011;9648;51.130;13.978;2023-06-10T00:20:47;10.77;;;8.10;;
19030;SDS011;9648;51.130;13.978;2023-06-10T00:23:19;8.20;;;7.40;;
19030;SDS011;9648;51.130;13.978;2023-06-10T00:25:46;9.43;;;7.80;;
19030;SDS011;9648;51.130;13.978;2023-06-10T00:28:13;11.68;;;10.48;;
19030;SDS011;9648;51.130;13.978;2023-06-10T00:30:40;13.68;;;10.63;;
19030;SDS011;9648;51.130;13.978;2023-06-10T00:33:06;10.43;;;9.27;;
19030;SDS011;9648;51.130;13.978;2023-06-10T00:35:33;9.82;;;8.80;;
19030;SDS011;9648;51.130;13.978;2023-06-10T00:38:00;11.13;;;9.15;;
19030;SDS011;9648;51.130;13.978;2023-06-10T00:40:28;9.18;;;8.27;;
19030;SDS011;9648;51.130;13.978;2023-06-10T00:42:54;8.73;;;7.83;;
19030;SDS011;9648;51.130;13.978;2023-06-10T00:45:21;9.75;;;8.27;;
19030;SDS011;9648;51.130;13.978;2023-06-10T00:47:48;10.15;;;9.07;;
19030;SDS011;9648;51.130;13.978;2023-06-10T00:50:17;10.23;;;8.38;;
19030;SDS011;9648;51.130;13.978;2023-06-10T00:52:47;11.25;;;9.20;;
19030;SDS011;9648;51.130;13.978;2023-06-10T00:55:15;11.75;;;9.80;;
19030;SDS011;9648;51.130;13.978;2023-06-10T00:57:45;12.73;;;9.55;;
19030;SDS011;9648;51.130;13.978;2023-06-10T01:00:14;11.85;;;9.82;;
19030;SDS011;9648;51.130;13.978;2023-06-10T01:02:41;14.30;;;10.60;;
19030;SDS011;9648;51.130;13.978;2023-06-10T01:05:08;12.30;;;9.85;;
19030;SDS011;9648;51.130;13.978;2023-06-10T01:07:36;14.70;;;10.27;;
19030;SDS011;9648;51.130;13.978;2023-06-10T01:10:09;13.15;;;9.82;;
19030;SDS011;9648;51.130;13.978;2023-06-10T01:12:43;10.57;;;9.48;;
19030;SDS011;9648;51.130;13.978;2023-06-10T01:15:24;11.85;;;9.27;;
19030;SDS011;9648;51.130;13.978;2023-06-10T01:17:53;11.80;;;9.43;;
19030;SDS011;9648;51.130;13.978;2023-06-10T01:20:22;11.40;;;9.45;;
19030;SDS011;9648;51.130;13.978;2023-06-10T01:22:53;11.85;;;9.27;;
19030;SDS011;9648;51.130;13.978;2023-06-10T01:25:20;11.57;;;9.65;;
19030;SDS011;9648;51.130;13.978;2023-06-10T01:27:52;11.98;;;10.00;;
19030;SDS011;9648;51.130;13.978;2023-06-10T01:30:24;10.82;;;9.70;;
19030;SDS011;9648;51.130;13.978;2023-06-10T01:32:58;12.93;;;10.02;;
19030;SDS011;9648;51.130;13.978;2023-06-10T01:35:30;12.55;;;9.77;;
19030;SDS011;9648;51.130;13.978;2023-06-10T01:37:59;11.75;;;9.20;;
19030;SDS011;9648;51.130;13.978;2023-06-10T01:40:27;11.43;;;9.80;;
19030;SDS011;9648;51.130;13.978;2023-06-10T01:42:57;14.82;;;10.40;;
19030;SDS011;9648;51.130;13.978;2023-06-10T01:45:29;11.55;;;10.02;;
19030;SDS011;9648;51.130;13.978;2023-06-10T01:48:12;15.27;;;10.27;;
19030;SDS011;9648;51.130;13.978;2023-06-10T01:50:39;12.02;;;9.25;;
19030;SDS011;9648;51.130;13.978;2023-06-10T01:53:07;12.95;;;10.32;;
19030;SDS011;9648;51.130;13.978;2023-06-10T01:55:34;12.17;;;10.03;;
19030;SDS011;9648;51.130;13.978;2023-06-10T01:58:26;11.32;;;9.18;;
19030;SDS011;9648;51.130;13.978;2023-06-10T02:01:28;12.38;;;9.63;;
19030;SDS011;9648;51.130;13.978;2023-06-10T02:03:55;10.43;;;8.20;;
19030;SDS011;9648;51.130;13.978;2023-06-10T02:06:21;12.65;;;9.98;;
19030;SDS011;9648;51.130;13.978;2023-06-10T02:08:51;11.90;;;9.30;;
19030;SDS011;9648;51.130;13.978;2023-06-10T02:11:19;11.13;;;9.20;;
19030;SDS011;9648;51.130;13.978;2023-06-10T02:13:46;10.53;;;9.43;;
19030;SDS011;9648;51.130;13.978;2023-06-10T02:16:15;13.77;;;10.27;;
19030;SDS011;9648;51.130;13.978;2023-06-10T02:18:42;11.75;;;10.30;;
19030;SDS011;9648;51.130;13.978;2023-06-10T02:21:09;13.45;;;10.73;;
19030;SDS011;9648;51.130;13.978;2023-06-10T02:23:35;13.98;;;10.73;;
19030;SDS011;9648;51.130;13.978;2023-06-10T02:26:04;12.05;;;9.88;;
19030;SDS011;9648;51.130;13.978;2023-06-10T02:28:30;11.98;;;10.02;;
19030;SDS011;9648;51.130;13.978;2023-06-10T02:30:57;11.80;;;10.03;;
19030;SDS011;9648;51.130;13.978;2023-06-10T02:33:25;12.63;;;10.38;;
19030;SDS011;9648;51.130;13.978;2023-06-10T02:35:52;12.57;;;10.23;;
19030;SDS011;9648;51.130;13.978;2023-06-10T02:38:19;14.05;;;10.70;;
19030;SDS011;9648;51.130;13.978;2023-06-10T02:40:46;16.13;;;10.90;;
19030;SDS011;9648;51.130;13.978;2023-06-10T02:43:14;12.88;;;11.40;;
19030;SDS011;9648;51.130;13.978;2023-06-10T02:45:41;13.37;;;10.87;;
19030;SDS011;9648;51.130;13.978;2023-06-10T02:48:07;13.23;;;10.80;;
19030;SDS011;9648;51.130;13.978;2023-06-10T02:50:34;13.50;;;10.20;;
19030;SDS011;9648;51.130;13.978;2023-06-10T02:53:01;12.05;;;10.73;;
19030;SDS011;9648;51.130;13.978;2023-06-10T02:55:27;13.13;;;10.60;;
19030;SDS011;9648;51.130;13.978;2023-06-10T02:57:54;11.07;;;9.88;;
19030;SDS011;9648;51.130;13.978;2023-06-10T03:00:25;10.80;;;9.70;;
19030;SDS011;9648;51.130;13.978;2023-06-10T03:02:52;14.60;;;10.10;;
19030;SDS011;9648;51.130;13.978;2023-06-10T03:05:22;13.82;;;11.07;;
19030;SDS011;9648;51.130;13.978;2023-06-10T03:07:49;14.17;;;11.37;;
19030;SDS011;9648;51.130;13.978;2023-06-10T03:10:15;12.65;;;10.05;;
19030;SDS011;9648;51.130;13.978;2023-06-10T03:12:42;11.40;;;10.10;;
19030;SDS011;9648;51.130;13.978;2023-06-10T03:15:10;14.65;;;10.45;;
19030;SDS011;9648;51.130;13.978;2023-06-10T03:17:38;11.77;;;10.13;;
19030;SDS011;9648;51.130;13.978;2023-06-10T03:20:07;12.57;;;10.63;;
19030;SDS011;9648;51.130;13.978;2023-06-10T03:22:36;11.40;;;9.98;;
19030;SDS011;9648;51.130;13.978;2023-06-10T03:25:04;12.10;;;9.85;;
19030;SDS011;9648;51.130;13.978;2023-06-10T03:27:33;11.60;;;9.70;;
19030;SDS011;9648;51.130;13.978;2023-06-10T03:30:00;18.20;;;10.63;;
19030;SDS011;9648;51.130;13.978;2023-06-10T03:32:28;11.07;;;9.48;;
19030;SDS011;9648;51.130;13.978;2023-06-10T03:34:56;12.85;;;9.77;;
19030;SDS011;9648;51.130;13.978;2023-06-10T03:37:23;11.73;;;9.73;;
19030;SDS011;9648;51.130;13.978;2023-06-10T03:39:50;14.45;;;10.55;;
19030;SDS011;9648;51.130;13.978;2023-06-10T03:42:17;13.30;;;10.45;;
19030;SDS011;9648;51.130;13.978;2023-06-10T03:44:44;13.75;;;10.75;;
19030;SDS011;9648;51.130;13.978;2023-06-10T03:47:11;12.03;;;10.07;;
19030;SDS011;9648;51.130;13.978;2023-06-10T03:49:39;13.07;;;10.55;;
19030;SDS011;9648;51.130;13.978;2023-06-10T03:52:07;10.93;;;9.50;;
19030;SDS011;9648;51.130;13.978;2023-06-10T03:54:33;13.57;;;10.32;;
19030;SDS011;9648;51.130;13.978;2023-06-10T03:57:00;10.60;;;9.43;;
19030;SDS011;9648;51.130;13.978;2023-06-10T03:59:28;10.93;;;9.40;;
19030;SDS011;9648;51.130;13.978;2023-06-10T04:01:55;11.30;;;9.75;;
19030;SDS011;9648;51.130;13.978;2023-06-10T04:04:22;13.50;;;10.00;;
19030;SDS011;9648;51.130;13.978;2023-06-10T04:06:49;10.75;;;9.48;;
19030;SDS011;9648;51.130;13.978;2023-06-10T04:09:18;12.60;;;9.15;;
19030;SDS011;9648;51.130;13.978;2023-06-10T04:11:44;12.43;;;10.13;;
19030;SDS011;9648;51.130;13.978;2023-06-10T04:14:11;15.02;;;9.82;;
19030;SDS011;9648;51.130;13.978;2023-06-10T04:16:39;11.25;;;9.80;;
19030;SDS011;9648;51.130;13.978;2023-06-10T04:19:05;10.37;;;9.27;;
19030;SDS011;9648;51.130;13.978;2023-06-10T04:21:32;10.73;;;9.27;;
19030;SDS011;9648;51.130;13.978;2023-06-10T04:23:59;11.40;;;9.65;;
19030;SDS011;9648;51.130;13.978;2023-06-10T04:26:28;10.70;;;8.88;;
19030;SDS011;9648;51.130;13.978;2023-06-10T04:28:55;9.52;;;8.10;;
19030;SDS011;9648;51.130;13.978;2023-06-10T04:31:21;9.80;;;8.30;;
19030;SDS011;9648;51.130;13.978;2023-06-10T04:33:48;8.80;;;7.82;;
19030;SDS011;9648;51.130;13.978;2023-06-10T04:36:15;10.55;;;8.85;;
19030;SDS011;9648;51.130;13.978;2023-06-10T04:38:42;9.68;;;8.32;;
19030;SDS011;9648;51.130;13.978;2023-06-10T04:41:09;8.75;;;7.75;;
19030;SDS011;9648;51.130;13.978;2023-06-10T04:43:37;10.18;;;8.20;;
19030;SDS011;9648;51.130;13.978;2023-06-10T04:46:05;9.75;;;7.70;;
19030;SDS011;9648;51.130;13.978;2023-06-10T04:48:32;9.95;;;7.50;;
19030;SDS011;9648;51.130;13.978;2023-06-10T04:51:00;9.30;;;7.90;;
19030;SDS011;9648;51.130;13.978;2023-06-10T04:53:27;8.82;;;6.97;;
19030;SDS011;9648;51.130;13.978;2023-06-10T04:55:54;9.65;;;7.88;;
19030;SDS011;9648;51.130;13.978;2023-06-10T04:58:22;10.38;;;8.55;;
19030;SDS011;9648;51.130;13.978;2023-06-10T05:00:50;10.43;;;7.80;;
19030;SDS011;9648;51.130;13.978;2023-06-10T05:03:17;9.38;;;7.47;;
19030;SDS011;9648;51.130;13.978;2023-06-10T05:05:44;8.13;;;6.95;;
19030;SDS011;9648;51.130;13.978;2023-06-10T05:08:10;7.32;;;6.47;;
19030;SDS011;9648;51.130;13.978;2023-06-10T05:10:37;7.82;;;6.68;;
19030;SDS011;9648;51.130;13.978;2023-06-10T05:13:04;8.30;;;6.22;;
19030;SDS011;9648;51.130;13.978;2023-06-10T05:15:30;5.97;;;5.38;;
19030;SDS011;9648;51.130;13.978;2023-06-10T05:17:59;8.00;;;6.03;;
19030;SDS011;9648;51.130;13.978;2023-06-10T05:20:27;7.43;;;5.57;;
19030;SDS011;9648;51.130;13.978;2023-06-10T05:22:54;6.50;;;5.45;;
19030;SDS011;9648;51.130;13.978;2023-06-10T05:25:21;6.05;;;5.30;;
19030;SDS011;9648;51.130;13.978;2023-06-10T05:27:48;6.93;;;5.15;;
19030;SDS011;9648;51.130;13.978;2023-06-10T05:30:14;5.75;;;4.85;;
19030;SDS011;9648;51.130;13.978;2023-06-10T05:32:41;5.80;;;5.18;;
19030;SDS011;9648;51.130;13.978;2023-06-10T05:35:09;6.32;;;5.00;;
19030;SDS011;9648;51.130;13.978;2023-06-10T05:37:36;7.55;;;5.47;;
19030;SDS011;9648;51.130;13.978;2023-06-10T05:40:03;7.85;;;5.93;;
19030;SDS011;9648;51.130;13.978;2023-06-10T05:42:31;6.97;;;5.47;;
19030;SDS011;9648;51.130;13.978;2023-06-10T05:44:58;5.30;;;4.78;;
19030;SDS011;9648;51.130;13.978;2023-06-10T05:47:24;6.50;;;5.80;;
19030;SDS011;9648;51.130;13.978;2023-06-10T05:49:51;5.68;;;5.07;;
19030;SDS011;9648;51.130;13.978;2023-06-10T05:52:19;5.47;;;4.97;;
19030;SDS011;9648;51.130;13.978;2023-06-10T05:54:46;8.33;;;6.13;;
19030;SDS011;9648;51.130;13.978;2023-06-10T05:57:12;6.50;;;5.75;;
19030;SDS011;9648;51.130;13.978;2023-06-10T05:59:39;12.27;;;6.50;;
19030;SDS011;9648;51.130;13.978;2023-06-10T06:02:06;7.60;;;5.73;;
19030;SDS011;9648;51.130;13.978;2023-06-10T06:04:33;7.05;;;5.15;;
19030;SDS011;9648;51.130;13.978;2023-06-10T06:07:00;5.97;;;5.38;;
19030;SDS011;9648;51.130;13.978;2023-06-10T06:09:28;6.38;;;4.95;;
19030;SDS011;9648;51.130;13.978;2023-06-10T06:11:55;6.88;;;5.82;;
19030;SDS011;9648;51.130;13.978;2023-06-10T06:14:21;7.95;;;5.80;;
19030;SDS011;9648;51.130;13.978;2023-06-10T06:16:48;8.03;;;6.27;;
19030;SDS011;9648;51.130;13.978;2023-06-10T06:19:15;7.50;;;5.60;;
19030;SDS011;9648;51.130;13.978;2023-06-10T06:21:41;7.55;;;5.25;;
19030;SDS011;9648;51.130;13.978;2023-06-10T06:24:08;6.63;;;5.70;;
19030;SDS011;9648;51.130;13.978;2023-06-10T06:26:36;6.32;;;5.40;;
19030;SDS011;9648;51.130;13.978;2023-06-10T06:29:03;7.87;;;5.50;;
19030;SDS011;9648;51.130;13.978;2023-06-10T06:31:30;6.68;;;5.13;;
19030;SDS011;9648;51.130;13.978;2023-06-10T06:33:56;5.88;;;5.00;;
19030;SDS011;9648;51.130;13.978;2023-06-10T06:36:23;7.20;;;5.73;;
19030;SDS011;9648;51.130;13.978;2023-06-10T06:38:50;6.97;;;5.72;;
19030;SDS011;9648;51.130;13.978;2023-06-10T06:41:17;7.10;;;5.63;;
19030;SDS011;9648;51.130;13.978;2023-06-10T06:43:45;6.40;;;5.63;;
19030;SDS011;9648;51.130;13.978;2023-06-10T06:46:12;6.75;;;5.53;;
19030;SDS011;9648;51.130;13.978;2023-06-10T06:48:40;7.93;;;5.40;;
19030;SDS011;9648;51.130;13.978;2023-06-10T06:51:07;7.80;;;5.55;;
19030;SDS011;9648;51.130;13.978;2023-06-10T06:53:34;5.97;;;5.38;;
19030;SDS011;9648;51.130;13.978;2023-06-10T06:56:01;6.65;;;5.45;;
19030;SDS011;9648;51.130;13.978;2023-06-10T06:58:28;8.15;;;5.97;;
19030;SDS011;9648;51.130;13.978;2023-06-10T07:00:56;6.57;;;5.32;;
19030;SDS011;9648;51.130;13.978;2023-06-10T07:03:23;7.22;;;5.50;;
19030;SDS011;9648;51.130;13.978;2023-06-10T07:05:50;7.90;;;5.55;;
19030;SDS011;9648;51.130;13.978;2023-06-10T07:08:16;6.53;;;5.50;;
19030;SDS011;9648;51.130;13.978;2023-06-10T07:10:43;8.38;;;5.82;;
19030;SDS011;9648;51.130;13.978;2023-06-10T07:13:10;7.25;;;5.30;;
19030;SDS011;9648;51.130;13.978;2023-06-10T07:15:37;9.27;;;5.70;;
19030;SDS011;9648;51.130;13.978;2023-06-10T07:18:06;7.13;;;5.63;;
19030;SDS011;9648;51.130;13.978;2023-06-10T07:20:32;9.68;;;5.80;;
19030;SDS011;9648;51.130;13.978;2023-06-10T07:22:59;7.05;;;5.32;;
19030;SDS011;9648;51.130;13.978;2023-06-10T07:25:26;6.10;;;5.50;;
19030;SDS011;9648;51.130;13.978;2023-06-10T07:27:53;7.18;;;5.30;;
19030;SDS011;9648;51.130;13.978;2023-06-10T07:30:20;6.72;;;5.15;;
19030;SDS011;9648;51.130;13.978;2023-06-10T07:32:46;6.00;;;4.75;;
19030;SDS011;9648;51.130;13.978;2023-06-10T07:35:14;7.03;;;5.28;;
19030;SDS011;9648;51.130;13.978;2023-06-10T07:37:41;6.50;;;4.70;;
19030;SDS011;9648;51.130;13.978;2023-06-10T07:40:08;5.88;;;4.72;;
19030;SDS011;9648;51.130;13.978;2023-06-10T07:42:36;6.43;;;4.65;;
19030;SDS011;9648;51.130;13.978;2023-06-10T07:45:03;6.43;;;5.00;;
19030;SDS011;9648;51.130;13.978;2023-06-10T07:47:31;6.43;;;4.88;;
19030;SDS011;9648;51.130;13.978;2023-06-10T07:49:59;6.43;;;4.93;;
19030;SDS011;9648;51.130;13.978;2023-06-10T07:52:27;6.63;;;5.53;;
19030;SDS011;9648;51.130;13.978;2023-06-10T07:54:54;6.27;;;4.70;;
19030;SDS011;9648;51.130;13.978;2023-06-10T07:57:21;7.35;;;4.90;;
19030;SDS011;9648;51.130;13.978;2023-06-10T07:59:48;6.07;;;5.20;;
19030;SDS011;9648;51.130;13.978;2023-06-10T08:02:14;7.60;;;5.38;;
19030;SDS011;9648;51.130;13.978;2023-06-10T08:04:41;5.82;;;5.10;;
19030;SDS011;9648;51.130;13.978;2023-06-10T08:07:08;6.90;;;4.97;;
19030;SDS011;9648;51.130;13.978;2023-06-10T08:09:36;7.93;;;5.28;;
19030;SDS011;9648;51.130;13.978;2023-06-10T08:12:03;6.43;;;5.38;;
19030;SDS011;9648;51.130;13.978;2023-06-10T08:14:30;6.97;;;5.50;;
19030;SDS011;9648;51.130;13.978;2023-06-10T08:16:57;6.38;;;5.40;;
19030;SDS011;9648;51.130;13.978;2023-06-10T08:19:23;8.13;;;5.47;;
19030;SDS011;9648;51.130;13.978;2023-06-10T08:21:50;6.65;;;5.38;;
19030;SDS011;9648;51.130;13.978;2023-06-10T08:24:17;8.30;;;5.63;;
19030;SDS011;9648;51.130;13.978;2023-06-10T08:26:46;6.87;;;5.50;;
19030;SDS011;9648;51.130;13.978;2023-06-10T08:29:13;8.02;;;5.60;;
19030;SDS011;9648;51.130;13.978;2023-06-10T08:31:41;8.13;;;5.53;;
19030;SDS011;9648;51.130;13.978;2023-06-10T08:34:08;6.05;;;5.03;;
19030;SDS011;9648;51.130;13.978;2023-06-10T08:36:34;6.93;;;5.00;;
19030;SDS011;9648;51.130;13.978;2023-06-10T08:39:02;6.93;;;4.97;;
19030;SDS011;9648;51.130;13.978;2023-06-10T08:41:28;6.63;;;4.90;;
19030;SDS011;9648;51.130;13.978;2023-06-10T08:44:03;7.00;;;5.10;;
19030;SDS011;9648;51.130;13.978;2023-06-10T08:46:35;7.80;;;5.10;;
19030;SDS011;9648;51.130;13.978;2023-06-10T08:49:03;7.03;;;5.00;;
19030;SDS011;9648;51.130;13.978;2023-06-10T08:51:32;7.28;;;5.20;;
19030;SDS011;9648;51.130;13.978;2023-06-10T08:54:01;6.28;;;5.03;;
19030;SDS011;9648;51.130;13.978;2023-06-10T08:56:30;6.40;;;5.22;;
19030;SDS011;9648;51.130;13.978;2023-06-10T08:58:58;6.18;;;5.10;;
19030;SDS011;9648;51.130;13.978;2023-06-10T09:01:27;7.67;;;5.20;;
19030;SDS011;9648;51.130;13.978;2023-06-10T09:03:55;8.30;;;5.20;;
19030;SDS011;9648;51.130;13.978;2023-06-10T09:06:22;6.78;;;4.95;;
19030;SDS011;9648;51.130;13.978;2023-06-10T09:09:08;7.40;;;5.07;;
19030;SDS011;9648;51.130;13.978;2023-06-10T09:11:53;5.53;;;4.97;;
19030;SDS011;9648;51.130;13.978;2023-06-10T09:14:39;6.40;;;4.90;;
19030;SDS011;9648;51.130;13.978;2023-06-10T09:17:26;8.10;;;5.18;;
19030;SDS011;9648;51.130;13.978;2023-06-10T09:20:11;9.30;;;5.40;;
19030;SDS011;9648;51.130;13.978;2023-06-10T09:22:57;6.22;;;4.88;;
19030;SDS011;9648;51.130;13.978;2023-06-10T09:25:44;6.90;;;5.00;;
19030;SDS011;9648;51.130;13.978;2023-06-10T09:28:29;5.77;;;4.67;;
19030;SDS011;9648;51.130;13.978;2023-06-10T09:31:03;6.75;;;5.25;;
19030;SDS011;9648;51.130;13.978;2023-06-10T09:33:32;7.07;;;4.90;;
19030;SDS011;9648;51.130;13.978;2023-06-10T09:36:00;7.63;;;4.70;;
19030;SDS011;9648;51.130;13.978;2023-06-10T09:38:49;6.15;;;4.55;;
19030;SDS011;9648;51.130;13.978;2023-06-10T09:41:34;6.10;;;4.93;;
19030;SDS011;9648;51.130;13.978;2023-06-10T09:44:21;9.55;;;5.40;;
19030;SDS011;9648;51.130;13.978;2023-06-10T09:47:08;6.35;;;4.88;;
19030;SDS011;9648;51.130;13.978;2023-06-10T09:49:55;8.27;;;5.20;;
19030;SDS011;9648;51.130;13.978;2023-06-10T09:52:40;6.47;;;4.82;;
19030;SDS011;9648;51.130;13.978;2023-06-10T09:55:25;6.03;;;5.03;;
19030;SDS011;9648;51.130;13.978;2023-06-10T09:57:53;6.22;;;4.72;;
19030;SDS011;9648;51.130;13.978;2023-06-10T10:00:20;6.32;;;5.57;;
19030;SDS011;9648;51.130;13.978;2023-06-10T10:02:51;8.38;;;5.40;;
19030;SDS011;9648;51.130;13.978;2023-06-10T10:05:21;7.47;;;5.32;;
19030;SDS011;9648;51.130;13.978;2023-06-10T10:07:49;7.80;;;5.47;;
19030;SDS011;9648;51.130;13.978;2023-06-10T10:10:17;6.47;;;5.07;;
19030;SDS011;9648;51.130;13.978;2023-06-10T10:12:45;8.07;;;5.35;;
19030;SDS011;9648;51.130;13.978;2023-06-10T10:15:13;8.90;;;6.60;;
19030;SDS011;9648;51.130;13.978;2023-06-10T10:17:44;7.03;;;5.30;;
19030;SDS011;9648;51.130;13.978;2023-06-10T10:20:16;7.85;;;5.55;;
19030;SDS011;9648;51.130;13.978;2023-06-10T10:22:48;8.52;;;5.22;;
19030;SDS011;9648;51.130;13.978;2023-06-10T10:25:21;6.28;;;5.05;;
19030;SDS011;9648;51.130;13.978;2023-06-10T10:27:51;7.28;;;5.35;;
19030;SDS011;9648;51.130;13.978;2023-06-10T10:30:21;6.95;;;4.75;;
19030;SDS011;9648;51.130;13.978;2023-06-10T10:32:52;7.18;;;5.38;;
19030;SDS011;9648;51.130;13.978;2023-06-10T10:35:23;7.00;;;5.00;;
19030;SDS011;9648;51.130;13.978;2023-06-10T10:37:53;7.65;;;4.90;;
19030;SDS011;9648;51.130;13.978;2023-06-10T10:40:20;6.43;;;5.07;;
19030;SDS011;9648;51.130;13.978;2023-06-10T10:42:48;5.30;;;4.70;;
19030;SDS011;9648;51.130;13.978;2023-06-10T10:45:19;10.43;;;6.68;;
19030;SDS011;9648;51.130;13.978;2023-06-10T10:47:51;7.47;;;5.25;;
19030;SDS011;9648;51.130;13.978;2023-06-10T10:50:20;6.45;;;4.50;;
19030;SDS011;9648;51.130;13.978;2023-06-10T10:52:53;6.43;;;4.85;;
19030;SDS011;9648;51.130;13.978;2023-06-10T10:55:22;7.50;;;4.93;;
19030;SDS011;9648;51.130;13.978;2023-06-10T10:57:55;5.80;;;4.78;;
19030;SDS011;9648;51.130;13.978;2023-06-10T11:00:29;7.30;;;5.00;;
19030;SDS011;9648;51.130;13.978;2023-06-10T11:02:57;6.95;;;4.63;;
19030;SDS011;9648;51.130;13.978;2023-06-10T11:05:31;7.13;;;4.90;;
19030;SDS011;9648;51.130;13.978;2023-06-10T11:08:03;6.85;;;5.03;;
19030;SDS011;9648;51.130;13.978;2023-06-10T11:10:30;8.17;;;5.30;;
19030;SDS011;9648;51.130;13.978;2023-06-10T11:12:57;6.60;;;5.22;;
19030;SDS011;9648;51.130;13.978;2023-06-10T11:15:25;7.97;;;4.93;;
19030;SDS011;9648;51.130;13.978;2023-06-10T11:20:56;9.80;;;5.30;;
19030;SDS011;9648;51.130;13.978;2023-06-10T11:23:41;6.93;;;5.10;;
19030;SDS011;9648;51.130;13.978;2023-06-10T11:26:09;6.50;;;5.20;;
19030;SDS011;9648;51.130;13.978;2023-06-10T11:28:40;8.02;;;5.00;;
19030;SDS011;9648;51.130;13.978;2023-06-10T11:31:08;6.78;;;5.10;;
19030;SDS011;9648;51.130;13.978;2023-06-10T11:33:45;8.77;;;5.20;;
19030;SDS011;9648;51.130;13.978;2023-06-10T11:36:13;6.20;;;4.80;;
19030;SDS011;9648;51.130;13.978;2023-06-10T11:38:41;7.95;;;5.20;;
19030;SDS011;9648;51.130;13.978;2023-06-10T11:41:09;6.13;;;5.03;;
19030;SDS011;9648;51.130;13.978;2023-06-10T11:43:37;6.05;;;4.75;;
19030;SDS011;9648;51.130;13.978;2023-06-10T11:46:06;7.07;;;4.95;;
19030;SDS011;9648;51.130;13.978;2023-06-10T11:48:34;8.00;;;5.40;;
19030;SDS011;9648;51.130;13.978;2023-06-10T11:51:00;9.30;;;5.57;;
19030;SDS011;9648;51.130;13.978;2023-06-10T11:53:30;7.72;;;5.50;;
19030;SDS011;9648;51.130;13.978;2023-06-10T11:55:58;7.45;;;5.55;;
19030;SDS011;9648;51.130;13.978;2023-06-10T11:58:25;9.13;;;5.28;;
19030;SDS011;9648;51.130;13.978;2023-06-10T12:00:52;8.68;;;5.68;;
19030;SDS011;9648;51.130;13.978;2023-06-10T12:03:21;10.52;;;5.32;;
19030;SDS011;9648;51.130;13.978;2023-06-10T12:05:55;6.00;;;5.03;;
19030;SDS011;9648;51.130;13.978;2023-06-10T12:08:22;7.88;;;4.53;;
19030;SDS011;9648;51.130;13.978;2023-06-10T12:10:50;4.82;;;4.32;;
19030;SDS011;9648;51.130;13.978;2023-06-10T12:13:18;5.20;;;4.63;;
19030;SDS011;9648;51.130;13.978;2023-06-10T12:15:45;10.20;;;5.25;;
19030;SDS011;9648;51.130;13.978;2023-06-10T12:18:15;7.63;;;5.13;;
19030;SDS011;9648;51.130;13.978;2023-06-10T12:20:42;6.82;;;4.88;;
19030;SDS011;9648;51.130;13.978;2023-06-10T12:23:10;8.77;;;4.90;;
19030;SDS011;9648;51.130;13.978;2023-06-10T12:25:37;7.82;;;5.00;;
19030;SDS011;9648;51.130;13.978;2023-06-10T12:28:04;6.80;;;4.85;;
19030;SDS011;9648;51.130;13.978;2023-06-10T12:30:36;7.32;;;4.93;;
19030;SDS011;9648;51.130;13.978;2023-06-10T12:33:02;5.40;;;4.80;;
19030;SDS011;9648;51.130;13.978;2023-06-10T12:35:29;7.85;;;5.10;;
19030;SDS011;9648;51.130;13.978;2023-06-10T12:37:56;9.00;;;5.40;;
19030;SDS011;9648;51.130;13.978;2023-06-10T12:40:25;8.18;;;5.05;;
19030;SDS011;9648;51.130;13.978;2023-06-10T12:42:55;5.63;;;4.80;;
19030;SDS011;9648;51.130;13.978;2023-06-10T12:45:26;7.20;;;4.77;;
19030;SDS011;9648;51.130;13.978;2023-06-10T12:48:05;5.60;;;4.60;;
19030;SDS011;9648;51.130;13.978;2023-06-10T12:50:34;7.38;;;4.90;;
19030;SDS011;9648;51.130;13.978;2023-06-10T12:53:02;7.10;;;5.13;;
19030;SDS011;9648;51.130;13.978;2023-06-10T12:55:29;7.97;;;5.20;;
19030;SDS011;9648;51.130;13.978;2023-06-10T12:57:57;6.55;;;4.70;;
19030;SDS011;9648;51.130;13.978;2023-06-10T13:00:24;6.17;;;4.80;;
19030;SDS011;9648;51.130;13.978;2023-06-10T13:02:53;7.53;;;4.88;;
19030;SDS011;9648;51.130;13.978;2023-06-10T13:05:21;6.68;;;4.80;;
19030;SDS011;9648;51.130;13.978;2023-06-10T13:07:48;6.80;;;4.10;;
19030;SDS011;9648;51.130;13.978;2023-06-10T13:10:16;9.30;;;4.38;;
19030;SDS011;9648;51.130;13.978;2023-06-10T13:12:43;9.53;;;4.50;;
19030;SDS011;9648;51.130;13.978;2023-06-10T13:15:10;5.30;;;3.80;;
19030;SDS011;9648;51.130;13.978;2023-06-10T13:17:39;6.32;;;3.60;;
19030;SDS011;9648;51.130;13.978;2023-06-10T13:20:06;7.75;;;4.05;;
19030;SDS011;9648;51.130;13.978;2023-06-10T13:22:35;8.57;;;4.10;;
19030;SDS011;9648;51.130;13.978;2023-06-10T13:25:02;6.85;;;3.58;;
19030;SDS011;9648;51.130;13.978;2023-06-10T13:27:29;4.90;;;3.47;;
19030;SDS011;9648;51.130;13.978;2023-06-10T13:29:56;4.97;;;3.70;;
19030;SDS011;9648;51.130;13.978;2023-06-10T13:32:23;5.68;;;3.65;;
19030;SDS011;9648;51.130;13.978;2023-06-10T13:34:49;7.00;;;3.75;;
19030;SDS011;9648;51.130;13.978;2023-06-10T13:37:18;5.95;;;3.85;;
19030;SDS011;9648;51.130;13.978;2023-06-10T13:39:46;8.53;;;3.77;;
19030;SDS011;9648;51.130;13.978;2023-06-10T13:42:13;5.45;;;3.90;;
19030;SDS011;9648;51.130;13.978;2023-06-10T13:44:40;5.97;;;3.90;;
19030;SDS011;9648;51.130;13.978;2023-06-10T13:47:07;5.37;;;3.73;;
19030;SDS011;9648;51.130;13.978;2023-06-10T13:49:33;5.23;;;3.63;;
19030;SDS011;9648;51.130;13.978;2023-06-10T13:52:00;5.30;;;3.88;;
19030;SDS011;9648;51.130;13.978;2023-06-10T13:54:27;4.28;;;3.28;;
19030;SDS011;9648;51.130;13.978;2023-06-10T13:56:55;6.68;;;3.75;;
19030;SDS011;9648;51.130;13.978;2023-06-10T13:59:22;5.13;;;3.75;;
19030;SDS011;9648;51.130;13.978;2023-06-10T14:01:48;6.10;;;3.22;;
19030;SDS011;9648;51.130;13.978;2023-06-10T14:04:15;5.25;;;3.58;;
19030;SDS011;9648;51.130;13.978;2023-06-10T14:06:42;5.30;;;3.13;;
19030;SDS011;9648;51.130;13.978;2023-06-10T14:09:08;5.03;;;3.63;;
19030;SDS011;9648;51.130;13.978;2023-06-10T14:11:35;4.97;;;3.88;;
19030;SDS011;9648;51.130;13.978;2023-06-10T14:14:03;3.95;;;3.10;;
19030;SDS011;9648;51.130;13.978;2023-06-10T14:16:30;5.18;;;3.67;;
19030;SDS011;9648;51.130;13.978;2023-06-10T14:18:57;4.88;;;3.42;;
19030;SDS011;9648;51.130;13.978;2023-06-10T14:21:23;7.50;;;3.70;;
19030;SDS011;9648;51.130;13.978;2023-06-10T14:23:50;6.45;;;3.80;;
19030;SDS011;9648;51.130;13.978;2023-06-10T14:26:18;11.10;;;4.32;;
19030;SDS011;9648;51.130;13.978;2023-06-10T14:28:46;6.63;;;3.50;;
19030;SDS011;9648;51.130;13.978;2023-06-10T14:31:15;6.63;;;3.67;;
19030;SDS011;9648;51.130;13.978;2023-06-10T14:33:42;8.30;;;4.13;;
19030;SDS011;9648;51.130;13.978;2023-06-10T14:36:09;4.90;;;4.18;;
19030;SDS011;9648;51.130;13.978;2023-06-10T14:38:36;7.78;;;3.90;;
19030;SDS011;9648;51.130;13.978;2023-06-10T14:41:03;4.13;;;3.53;;
19030;SDS011;9648;51.130;13.978;2023-06-10T14:43:29;6.05;;;4.25;;
19030;SDS011;9648;51.130;13.978;2023-06-10T14:45:56;6.10;;;3.75;;
19030;SDS011;9648;51.130;13.978;2023-06-10T14:48:24;7.00;;;4.10;;
19030;SDS011;9648;51.130;13.978;2023-06-10T14:50:51;5.75;;;4.22;;
19030;SDS011;9648;51.130;13.978;2023-06-10T14:53:20;7.15;;;4.00;;
19030;SDS011;9648;51.130;13.978;2023-06-10T14:55:46;6.60;;;3.90;;